Buoy 41607

sailwx.info

Track history (hours):
 
Tides and Currents Weather Stations Pressure Air Temp Water Temp Dewpoint Dewpoint Depression Visibility Wind Speed Wind Dir Waves Ship Positions

Drifting buoy 41607

Last reported at 2015-Aug-28 03:00 UTC. Time now 2015-Aug-28 07:33 UTC.
Position N 24°13' W 068°32'.

Water temperature 29.7 ° C

Date/timePositionNaut miles runAvg speedWind from/ knotsBaromVisibWave heightAir tempDewpointWater temp
2015-Aug-28 03:00N 24°13' W 068°32'0 0.1 29.7
2015-Aug-28 02:00N 24°13' W 068°31'1 1.0 29.7
2015-Aug-28 01:00N 24°13' W 068°30'3 0.5 29.8
2015-Aug-27 20:00N 24°14' W 068°28'3 0.9 29.9
2015-Aug-27 17:00N 24°13' W 068°25'3 0.4 29.9
2015-Aug-27 09:00N 24°13' W 068°21'6 0.4 29.8
2015-Aug-26 17:00N 24°14' W 068°14'2 0.5 30.0
2015-Aug-26 14:00N 24°14' W 068°13'2 0.3 29.8
2015-Aug-26 08:00N 24°13' W 068°11'3 0.4 29.7
2015-Aug-26 02:00N 24°13' W 068°08'2 1.1 29.7
2015-Aug-26 00:00N 24°14' W 068°06'1 0.2 29.8
2015-Aug-25 20:00N 24°14' W 068°05'4 0.4 29.9
2015-Aug-25 11:00N 24°14' W 068°01'1 0.3 29.6
2015-Aug-25 08:00N 24°14' W 068°00'2 0.5 29.7
2015-Aug-25 03:00N 24°14' W 067°57'0 0.3 29.8
2015-Aug-25 02:00N 24°15' W 067°57'2 0.5 29.8
2015-Aug-24 23:00N 24°15' W 067°55'11 0.4 29.8
2015-Aug-23 20:00N 24°20' W 067°45'0 0.0 29.8
2015-Aug-23 15:00N 24°20' W 067°45'0 0.3 29.7
2015-Aug-23 14:00N 24°20' W 067°45'2 0.6 29.6
2015-Aug-23 11:00N 24°22' W 067°43'2 0.6 29.7
2015-Aug-23 08:00N 24°23' W 067°42'4 0.5 29.7
2015-Aug-23 01:00N 24°26' W 067°42'1 0.2 29.6
2015-Aug-22 21:00N 24°27' W 067°43'0 0.5 29.8
2015-Aug-22 20:00N 24°27' W 067°43'1 0.2 29.8
2015-Aug-22 16:00N 24°27' W 067°42'7 0.5 29.7
2015-Aug-22 02:00N 24°34' W 067°39'3 0.3 29.7
2015-Aug-21 18:00N 24°36' W 067°40'1 0.2 29.9
2015-Aug-21 14:00N 24°37' W 067°40'1 0.5 29.9
2015-Aug-21 13:00N 24°38' W 067°40'1 0.3 29.8
2015-Aug-21 09:00N 24°39' W 067°39'1 0.3 29.9
2015-Aug-21 05:00N 24°40' W 067°40'1 1.2 30.1
2015-Aug-21 04:00N 24°41' W 067°39'0 0.2 30.2
2015-Aug-21 01:00N 24°42' W 067°39'1 1.0 30.4
2015-Aug-21 00:00N 24°42' W 067°39'0 0.1 30.5
2015-Aug-20 20:00N 24°43' W 067°39'0 0.1 31.5
2015-Aug-20 19:00N 24°43' W 067°39'1 0.2 31.7
2015-Aug-20 15:00N 24°43' W 067°39'2 0.3 30.9
2015-Aug-20 10:00N 24°44' W 067°38'4 0.5 29.9
2015-Aug-20 02:00N 24°47' W 067°34'0 0.4 30.3
2015-Aug-20 01:00N 24°47' W 067°34'12 0.4 30.4
2015-Aug-18 20:00N 24°51' W 067°21'4 1.2 30.4
2015-Aug-18 17:00N 24°51' W 067°17'3 0.6 30.0
2015-Aug-18 11:00N 24°54' W 067°15'0 0.3 29.7
2015-Aug-18 10:00N 24°54' W 067°15'2 1.5 29.7
2015-Aug-18 09:00N 24°55' W 067°13'   29.7
Track history (hours):
 
Tides and Currents Weather Stations Pressure Air Temp Water Temp Dewpoint Dewpoint Depression Visibility Wind Speed Wind Dir Waves Ship Positions

Drifting buoy 41607

Last reported at 2015-Aug-28 03:00 UTC. Time now 2015-Aug-28 07:33 UTC.
Position N 24°13' W 068°32'.

Water temperature 29.7 ° C

Date/timePositionNaut miles runAvg speedWind from/ knotsBaromVisibWave heightAir tempDewpointWater temp
2015-Aug-28 03:00N 24°13' W 068°32'0 0.1 29.7
2015-Aug-28 02:00N 24°13' W 068°31'1 1.0 29.7
2015-Aug-28 01:00N 24°13' W 068°30'3 0.5 29.8
2015-Aug-27 20:00N 24°14' W 068°28'3 0.9 29.9
2015-Aug-27 17:00N 24°13' W 068°25'3 0.4 29.9
2015-Aug-27 09:00N 24°13' W 068°21'6 0.4 29.8
2015-Aug-26 17:00N 24°14' W 068°14'2 0.5 30.0
2015-Aug-26 14:00N 24°14' W 068°13'2 0.3 29.8
2015-Aug-26 08:00N 24°13' W 068°11'3 0.4 29.7
2015-Aug-26 02:00N 24°13' W 068°08'2 1.1 29.7
2015-Aug-26 00:00N 24°14' W 068°06'1 0.2 29.8
2015-Aug-25 20:00N 24°14' W 068°05'4 0.4 29.9
2015-Aug-25 11:00N 24°14' W 068°01'1 0.3 29.6
2015-Aug-25 08:00N 24°14' W 068°00'2 0.5 29.7
2015-Aug-25 03:00N 24°14' W 067°57'0 0.3 29.8
2015-Aug-25 02:00N 24°15' W 067°57'2 0.5 29.8
2015-Aug-24 23:00N 24°15' W 067°55'11 0.4 29.8
2015-Aug-23 20:00N 24°20' W 067°45'0 0.0 29.8
2015-Aug-23 15:00N 24°20' W 067°45'0 0.3 29.7
2015-Aug-23 14:00N 24°20' W 067°45'2 0.6 29.6
2015-Aug-23 11:00N 24°22' W 067°43'2 0.6 29.7
2015-Aug-23 08:00N 24°23' W 067°42'4 0.5 29.7
2015-Aug-23 01:00N 24°26' W 067°42'1 0.2 29.6
2015-Aug-22 21:00N 24°27' W 067°43'0 0.5 29.8
2015-Aug-22 20:00N 24°27' W 067°43'1 0.2 29.8
2015-Aug-22 16:00N 24°27' W 067°42'7 0.5 29.7
2015-Aug-22 02:00N 24°34' W 067°39'3 0.3 29.7
2015-Aug-21 18:00N 24°36' W 067°40'1 0.2 29.9
2015-Aug-21 14:00N 24°37' W 067°40'1 0.5 29.9
2015-Aug-21 13:00N 24°38' W 067°40'1 0.3 29.8
2015-Aug-21 09:00N 24°39' W 067°39'1 0.3 29.9
2015-Aug-21 05:00N 24°40' W 067°40'1 1.2 30.1
2015-Aug-21 04:00N 24°41' W 067°39'0 0.2 30.2
2015-Aug-21 01:00N 24°42' W 067°39'1 1.0 30.4
2015-Aug-21 00:00N 24°42' W 067°39'0 0.1 30.5
2015-Aug-20 20:00N 24°43' W 067°39'0 0.1 31.5
2015-Aug-20 19:00N 24°43' W 067°39'1 0.2 31.7
2015-Aug-20 15:00N 24°43' W 067°39'2 0.3 30.9
2015-Aug-20 10:00N 24°44' W 067°38'4 0.5 29.9
2015-Aug-20 02:00N 24°47' W 067°34'0 0.4 30.3
2015-Aug-20 01:00N 24°47' W 067°34'12 0.4 30.4
2015-Aug-18 20:00N 24°51' W 067°21'4 1.2 30.4
2015-Aug-18 17:00N 24°51' W 067°17'3 0.6 30.0
2015-Aug-18 11:00N 24°54' W 067°15'0 0.3 29.7
2015-Aug-18 10:00N 24°54' W 067°15'2 1.5 29.7
2015-Aug-18 09:00N 24°55' W 067°13'   29.7

Dump ship's entire track history